sensor_id;sensor_type;location;lat;lon;timestamp;P1;durP1;ratioP1;P2;durP2;ratioP2
63342;SDS011;49465;57.664;39.686;2023-03-03T00:01:21;6.32;;;2.10;;
63342;SDS011;49465;57.664;39.686;2023-03-03T00:03:51;5.47;;;1.90;;
63342;SDS011;49465;57.664;39.686;2023-03-03T00:06:18;3.92;;;1.90;;
63342;SDS011;49465;57.664;39.686;2023-03-03T00:08:48;4.65;;;1.80;;
63342;SDS011;49465;57.664;39.686;2023-03-03T00:11:15;5.38;;;1.95;;
63342;SDS011;49465;57.664;39.686;2023-03-03T00:13:51;4.95;;;1.70;;
63342;SDS011;49465;57.664;39.686;2023-03-03T00:16:27;4.80;;;1.60;;
63342;SDS011;49465;57.664;39.686;2023-03-03T00:21:51;3.72;;;1.67;;
63342;SDS011;49465;57.664;39.686;2023-03-03T00:24:24;7.72;;;1.90;;
63342;SDS011;49465;57.664;39.686;2023-03-03T00:27:16;4.70;;;1.80;;
63342;SDS011;49465;57.664;39.686;2023-03-03T00:29:56;6.13;;;1.58;;
63342;SDS011;49465;57.664;39.686;2023-03-03T00:32:26;5.93;;;1.90;;
63342;SDS011;49465;57.664;39.686;2023-03-03T00:35:24;4.90;;;1.70;;
63342;SDS011;49465;57.664;39.686;2023-03-03T00:37:53;5.30;;;1.90;;
63342;SDS011;49465;57.664;39.686;2023-03-03T00:40:26;2.95;;;1.60;;
63342;SDS011;49465;57.664;39.686;2023-03-03T00:43:01;4.25;;;1.67;;
63342;SDS011;49465;57.664;39.686;2023-03-03T00:48:30;7.10;;;1.80;;
63342;SDS011;49465;57.664;39.686;2023-03-03T00:53:49;4.28;;;1.70;;
63342;SDS011;49465;57.664;39.686;2023-03-03T00:56:24;3.65;;;1.42;;
63342;SDS011;49465;57.664;39.686;2023-03-03T00:58:55;5.97;;;1.60;;
63342;SDS011;49465;57.664;39.686;2023-03-03T01:01:25;6.30;;;1.95;;
63342;SDS011;49465;57.664;39.686;2023-03-03T01:03:59;6.93;;;1.63;;
63342;SDS011;49465;57.664;39.686;2023-03-03T01:06:27;4.35;;;1.67;;
63342;SDS011;49465;57.664;39.686;2023-03-03T01:08:54;3.50;;;1.40;;
63342;SDS011;49465;57.664;39.686;2023-03-03T01:11:25;4.13;;;1.42;;
63342;SDS011;49465;57.664;39.686;2023-03-03T01:13:58;4.55;;;1.60;;
63342;SDS011;49465;57.664;39.686;2023-03-03T01:16:25;4.90;;;1.67;;
63342;SDS011;49465;57.664;39.686;2023-03-03T01:18:54;5.13;;;1.65;;
63342;SDS011;49465;57.664;39.686;2023-03-03T01:21:26;4.53;;;1.58;;
63342;SDS011;49465;57.664;39.686;2023-03-03T01:23:56;4.97;;;1.40;;
63342;SDS011;49465;57.664;39.686;2023-03-03T01:26:22;5.95;;;1.83;;
63342;SDS011;49465;57.664;39.686;2023-03-03T01:28:54;5.55;;;1.80;;
63342;SDS011;49465;57.664;39.686;2023-03-03T01:31:21;3.50;;;1.50;;
63342;SDS011;49465;57.664;39.686;2023-03-03T01:33:47;4.15;;;1.80;;
63342;SDS011;49465;57.664;39.686;2023-03-03T01:36:14;5.38;;;1.80;;
63342;SDS011;49465;57.664;39.686;2023-03-03T01:38:49;5.07;;;1.60;;
63342;SDS011;49465;57.664;39.686;2023-03-03T01:41:15;5.70;;;1.80;;
63342;SDS011;49465;57.664;39.686;2023-03-03T01:43:46;4.43;;;1.60;;
63342;SDS011;49465;57.664;39.686;2023-03-03T01:48:50;4.38;;;1.60;;
63342;SDS011;49465;57.664;39.686;2023-03-03T01:51:28;4.55;;;1.40;;
63342;SDS011;49465;57.664;39.686;2023-03-03T01:54:06;6.05;;;1.70;;
63342;SDS011;49465;57.664;39.686;2023-03-03T01:56:40;4.53;;;1.63;;
63342;SDS011;49465;57.664;39.686;2023-03-03T01:59:15;4.13;;;1.60;;
63342;SDS011;49465;57.664;39.686;2023-03-03T02:01:50;5.65;;;1.67;;
63342;SDS011;49465;57.664;39.686;2023-03-03T02:04:16;5.22;;;1.50;;
63342;SDS011;49465;57.664;39.686;2023-03-03T02:06:48;3.70;;;1.42;;
63342;SDS011;49465;57.664;39.686;2023-03-03T02:12:16;3.88;;;1.50;;
63342;SDS011;49465;57.664;39.686;2023-03-03T02:14:44;4.50;;;1.70;;
63342;SDS011;49465;57.664;39.686;2023-03-03T02:17:11;4.70;;;1.60;;
63342;SDS011;49465;57.664;39.686;2023-03-03T02:19:41;3.92;;;1.50;;
63342;SDS011;49465;57.664;39.686;2023-03-03T02:22:08;4.78;;;1.52;;
63342;SDS011;49465;57.664;39.686;2023-03-03T02:24:42;6.50;;;1.73;;
63342;SDS011;49465;57.664;39.686;2023-03-03T02:27:24;8.10;;;1.90;;
63342;SDS011;49465;57.664;39.686;2023-03-03T02:29:53;4.18;;;1.60;;
63342;SDS011;49465;57.664;39.686;2023-03-03T02:32:22;5.82;;;1.77;;
63342;SDS011;49465;57.664;39.686;2023-03-03T02:34:52;4.50;;;1.52;;
63342;SDS011;49465;57.664;39.686;2023-03-03T02:37:18;6.72;;;1.80;;
63342;SDS011;49465;57.664;39.686;2023-03-03T02:39:45;6.15;;;1.55;;
63342;SDS011;49465;57.664;39.686;2023-03-03T02:42:19;6.38;;;2.45;;
63342;SDS011;49465;57.664;39.686;2023-03-03T02:44:52;5.25;;;2.08;;
63342;SDS011;49465;57.664;39.686;2023-03-03T02:47:18;8.43;;;2.95;;
63342;SDS011;49465;57.664;39.686;2023-03-03T02:49:47;6.95;;;1.65;;
63342;SDS011;49465;57.664;39.686;2023-03-03T02:52:13;4.20;;;1.70;;
63342;SDS011;49465;57.664;39.686;2023-03-03T02:54:45;5.30;;;1.75;;
63342;SDS011;49465;57.664;39.686;2023-03-03T02:57:12;5.53;;;1.85;;
63342;SDS011;49465;57.664;39.686;2023-03-03T02:59:38;7.47;;;1.95;;
63342;SDS011;49465;57.664;39.686;2023-03-03T03:02:07;3.72;;;1.58;;
63342;SDS011;49465;57.664;39.686;2023-03-03T03:04:36;6.43;;;1.70;;
63342;SDS011;49465;57.664;39.686;2023-03-03T03:07:02;5.55;;;1.50;;
63342;SDS011;49465;57.664;39.686;2023-03-03T03:09:29;5.93;;;1.73;;
63342;SDS011;49465;57.664;39.686;2023-03-03T03:11:58;5.78;;;1.70;;
63342;SDS011;49465;57.664;39.686;2023-03-03T03:14:26;5.82;;;1.70;;
63342;SDS011;49465;57.664;39.686;2023-03-03T03:16:55;4.88;;;1.60;;
63342;SDS011;49465;57.664;39.686;2023-03-03T03:19:22;6.50;;;1.60;;
63342;SDS011;49465;57.664;39.686;2023-03-03T03:21:53;4.78;;;1.65;;
63342;SDS011;49465;57.664;39.686;2023-03-03T03:24:22;4.32;;;1.70;;
63342;SDS011;49465;57.664;39.686;2023-03-03T03:26:49;3.00;;;1.38;;
63342;SDS011;49465;57.664;39.686;2023-03-03T03:29:15;5.40;;;1.75;;
63342;SDS011;49465;57.664;39.686;2023-03-03T03:31:44;3.80;;;1.30;;
63342;SDS011;49465;57.664;39.686;2023-03-03T03:34:11;5.60;;;1.90;;
63342;SDS011;49465;57.664;39.686;2023-03-03T03:36:40;3.13;;;1.30;;
63342;SDS011;49465;57.664;39.686;2023-03-03T03:39:13;6.10;;;1.70;;
63342;SDS011;49465;57.664;39.686;2023-03-03T03:41:43;5.63;;;1.73;;
63342;SDS011;49465;57.664;39.686;2023-03-03T03:44:09;4.53;;;1.40;;
63342;SDS011;49465;57.664;39.686;2023-03-03T03:46:38;4.75;;;1.45;;
63342;SDS011;49465;57.664;39.686;2023-03-03T03:49:07;5.75;;;1.65;;
63342;SDS011;49465;57.664;39.686;2023-03-03T03:51:37;7.72;;;2.20;;
63342;SDS011;49465;57.664;39.686;2023-03-03T03:54:06;7.10;;;1.60;;
63342;SDS011;49465;57.664;39.686;2023-03-03T03:56:38;6.90;;;1.80;;
63342;SDS011;49465;57.664;39.686;2023-03-03T03:59:05;6.72;;;1.55;;
63342;SDS011;49465;57.664;39.686;2023-03-03T04:01:34;5.35;;;1.73;;
63342;SDS011;49465;57.664;39.686;2023-03-03T04:04:03;6.38;;;1.63;;
63342;SDS011;49465;57.664;39.686;2023-03-03T04:06:33;4.70;;;1.60;;
63342;SDS011;49465;57.664;39.686;2023-03-03T04:09:02;5.82;;;1.80;;
63342;SDS011;49465;57.664;39.686;2023-03-03T04:11:28;7.85;;;2.00;;
63342;SDS011;49465;57.664;39.686;2023-03-03T04:13:58;5.10;;;1.70;;
63342;SDS011;49465;57.664;39.686;2023-03-03T04:16:30;7.25;;;2.40;;
63342;SDS011;49465;57.664;39.686;2023-03-03T04:18:56;7.47;;;2.80;;
63342;SDS011;49465;57.664;39.686;2023-03-03T04:21:26;6.45;;;1.90;;
63342;SDS011;49465;57.664;39.686;2023-03-03T04:23:58;4.85;;;2.17;;
63342;SDS011;49465;57.664;39.686;2023-03-03T04:26:24;5.75;;;1.50;;
63342;SDS011;49465;57.664;39.686;2023-03-03T04:28:59;5.50;;;1.73;;
63342;SDS011;49465;57.664;39.686;2023-03-03T04:31:28;5.57;;;1.70;;
63342;SDS011;49465;57.664;39.686;2023-03-03T04:33:57;7.63;;;2.00;;
63342;SDS011;49465;57.664;39.686;2023-03-03T04:36:23;4.68;;;1.67;;
63342;SDS011;49465;57.664;39.686;2023-03-03T04:38:50;5.63;;;1.50;;
63342;SDS011;49465;57.664;39.686;2023-03-03T04:41:22;4.97;;;1.42;;
63342;SDS011;49465;57.664;39.686;2023-03-03T04:43:48;4.03;;;1.80;;
63342;SDS011;49465;57.664;39.686;2023-03-03T04:46:15;6.10;;;1.83;;
63342;SDS011;49465;57.664;39.686;2023-03-03T04:48:47;6.45;;;1.70;;
63342;SDS011;49465;57.664;39.686;2023-03-03T04:51:13;3.72;;;1.60;;
63342;SDS011;49465;57.664;39.686;2023-03-03T04:53:45;6.05;;;2.17;;
63342;SDS011;49465;57.664;39.686;2023-03-03T04:56:12;9.15;;;3.35;;
63342;SDS011;49465;57.664;39.686;2023-03-03T04:58:41;10.57;;;2.90;;
63342;SDS011;49465;57.664;39.686;2023-03-03T05:01:12;9.45;;;2.70;;
63342;SDS011;49465;57.664;39.686;2023-03-03T05:03:39;7.70;;;2.65;;
63342;SDS011;49465;57.664;39.686;2023-03-03T05:06:12;7.97;;;2.50;;
63342;SDS011;49465;57.664;39.686;2023-03-03T05:08:38;6.78;;;2.08;;
63342;SDS011;49465;57.664;39.686;2023-03-03T05:11:07;7.65;;;2.55;;
63342;SDS011;49465;57.664;39.686;2023-03-03T05:13:33;5.82;;;2.40;;
63342;SDS011;49465;57.664;39.686;2023-03-03T05:16:02;7.35;;;2.22;;
63342;SDS011;49465;57.664;39.686;2023-03-03T05:18:29;6.63;;;2.42;;
63342;SDS011;49465;57.664;39.686;2023-03-03T05:20:57;7.35;;;2.50;;
63342;SDS011;49465;57.664;39.686;2023-03-03T05:23:24;8.52;;;2.15;;
63342;SDS011;49465;57.664;39.686;2023-03-03T05:25:54;8.77;;;2.55;;
63342;SDS011;49465;57.664;39.686;2023-03-03T05:28:21;10.30;;;3.22;;
63342;SDS011;49465;57.664;39.686;2023-03-03T05:30:53;6.22;;;2.85;;
63342;SDS011;49465;57.664;39.686;2023-03-03T05:33:22;5.45;;;2.10;;
63342;SDS011;49465;57.664;39.686;2023-03-03T05:35:52;4.22;;;1.80;;
63342;SDS011;49465;57.664;39.686;2023-03-03T05:38:19;7.22;;;1.88;;
63342;SDS011;49465;57.664;39.686;2023-03-03T05:40:48;4.50;;;1.60;;
63342;SDS011;49465;57.664;39.686;2023-03-03T05:43:20;6.40;;;1.88;;
63342;SDS011;49465;57.664;39.686;2023-03-03T05:45:47;4.88;;;1.75;;
63342;SDS011;49465;57.664;39.686;2023-03-03T05:48:21;4.38;;;1.65;;
63342;SDS011;49465;57.664;39.686;2023-03-03T05:50:48;5.68;;;1.63;;
63342;SDS011;49465;57.664;39.686;2023-03-03T05:53:17;6.55;;;1.58;;
63342;SDS011;49465;57.664;39.686;2023-03-03T05:55:49;6.40;;;1.50;;
63342;SDS011;49465;57.664;39.686;2023-03-03T05:58:19;5.38;;;1.42;;
63342;SDS011;49465;57.664;39.686;2023-03-03T06:00:47;8.02;;;2.58;;
63342;SDS011;49465;57.664;39.686;2023-03-03T06:03:20;7.05;;;1.98;;
63342;SDS011;49465;57.664;39.686;2023-03-03T06:05:46;4.10;;;1.95;;
63342;SDS011;49465;57.664;39.686;2023-03-03T06:08:18;4.53;;;1.67;;
63342;SDS011;49465;57.664;39.686;2023-03-03T06:10:49;6.63;;;1.55;;
63342;SDS011;49465;57.664;39.686;2023-03-03T06:13:19;4.20;;;1.33;;
63342;SDS011;49465;57.664;39.686;2023-03-03T06:15:48;6.32;;;1.60;;
63342;SDS011;49465;57.664;39.686;2023-03-03T06:18:18;5.70;;;1.60;;
63342;SDS011;49465;57.664;39.686;2023-03-03T06:20:51;6.30;;;1.58;;
63342;SDS011;49465;57.664;39.686;2023-03-03T06:23:23;4.73;;;1.43;;
63342;SDS011;49465;57.664;39.686;2023-03-03T06:25:55;4.32;;;1.40;;
63342;SDS011;49465;57.664;39.686;2023-03-03T06:28:23;5.05;;;1.60;;
63342;SDS011;49465;57.664;39.686;2023-03-03T06:30:58;5.82;;;1.60;;
63342;SDS011;49465;57.664;39.686;2023-03-03T06:33:30;4.53;;;1.40;;
63342;SDS011;49465;57.664;39.686;2023-03-03T06:36:02;4.05;;;1.30;;
63342;SDS011;49465;57.664;39.686;2023-03-03T06:38:30;7.95;;;2.20;;
63342;SDS011;49465;57.664;39.686;2023-03-03T06:41:02;5.72;;;1.70;;
63342;SDS011;49465;57.664;39.686;2023-03-03T06:43:34;3.70;;;1.70;;
63342;SDS011;49465;57.664;39.686;2023-03-03T06:46:02;6.32;;;1.90;;
63342;SDS011;49465;57.664;39.686;2023-03-03T06:48:34;4.70;;;1.60;;
63342;SDS011;49465;57.664;39.686;2023-03-03T06:51:08;6.18;;;1.52;;
63342;SDS011;49465;57.664;39.686;2023-03-03T06:54:00;3.15;;;1.20;;
63342;SDS011;49465;57.664;39.686;2023-03-03T06:56:35;4.95;;;1.40;;
63342;SDS011;49465;57.664;39.686;2023-03-03T06:59:19;5.63;;;1.20;;
63342;SDS011;49465;57.664;39.686;2023-03-03T07:01:55;4.93;;;1.52;;
63342;SDS011;49465;57.664;39.686;2023-03-03T07:07:15;4.00;;;1.40;;
63342;SDS011;49465;57.664;39.686;2023-03-03T07:09:52;6.25;;;1.67;;
63342;SDS011;49465;57.664;39.686;2023-03-03T07:12:29;3.58;;;1.52;;
63342;SDS011;49465;57.664;39.686;2023-03-03T07:15:12;3.63;;;1.50;;
63342;SDS011;49465;57.664;39.686;2023-03-03T07:17:41;5.05;;;1.60;;
63342;SDS011;49465;57.664;39.686;2023-03-03T07:20:20;8.27;;;5.13;;
63342;SDS011;49465;57.664;39.686;2023-03-03T07:22:48;4.65;;;2.00;;
63342;SDS011;49465;57.664;39.686;2023-03-03T07:25:20;6.15;;;1.65;;
63342;SDS011;49465;57.664;39.686;2023-03-03T07:28:46;5.07;;;1.35;;
63342;SDS011;49465;57.664;39.686;2023-03-03T07:30:55;3.63;;;1.50;;
63342;SDS011;49465;57.664;39.686;2023-03-03T07:33:28;3.30;;;1.17;;
63342;SDS011;49465;57.664;39.686;2023-03-03T07:38:48;4.40;;;1.50;;
63342;SDS011;49465;57.664;39.686;2023-03-03T07:41:28;4.60;;;1.50;;
63342;SDS011;49465;57.664;39.686;2023-03-03T07:46:46;3.42;;;1.80;;
63342;SDS011;49465;57.664;39.686;2023-03-03T07:49:27;2.85;;;1.52;;
63342;SDS011;49465;57.664;39.686;2023-03-03T07:52:15;3.78;;;1.25;;
63342;SDS011;49465;57.664;39.686;2023-03-03T07:55:19;4.85;;;1.48;;
63342;SDS011;49465;57.664;39.686;2023-03-03T07:57:51;3.45;;;1.38;;
63342;SDS011;49465;57.664;39.686;2023-03-03T08:03:34;4.75;;;1.40;;
63342;SDS011;49465;57.664;39.686;2023-03-03T08:06:10;3.35;;;1.30;;
63342;SDS011;49465;57.664;39.686;2023-03-03T08:08:55;1.73;;;1.10;;
63342;SDS011;49465;57.664;39.686;2023-03-03T08:11:35;4.68;;;1.25;;
63342;SDS011;49465;57.664;39.686;2023-03-03T08:14:11;5.10;;;1.50;;
63342;SDS011;49465;57.664;39.686;2023-03-03T08:16:54;2.92;;;1.30;;
63342;SDS011;49465;57.664;39.686;2023-03-03T08:19:27;3.63;;;1.30;;
63342;SDS011;49465;57.664;39.686;2023-03-03T08:22:08;4.22;;;1.42;;
63342;SDS011;49465;57.664;39.686;2023-03-03T08:24:41;2.47;;;1.20;;
63342;SDS011;49465;57.664;39.686;2023-03-03T08:27:10;3.95;;;1.40;;
63342;SDS011;49465;57.664;39.686;2023-03-03T08:29:37;3.17;;;1.33;;
63342;SDS011;49465;57.664;39.686;2023-03-03T08:32:03;2.55;;;1.65;;
63342;SDS011;49465;57.664;39.686;2023-03-03T08:34:35;2.67;;;1.77;;
63342;SDS011;49465;57.664;39.686;2023-03-03T08:37:01;3.47;;;1.58;;
63342;SDS011;49465;57.664;39.686;2023-03-03T08:39:31;3.25;;;1.73;;
63342;SDS011;49465;57.664;39.686;2023-03-03T08:42:02;3.53;;;2.10;;
63342;SDS011;49465;57.664;39.686;2023-03-03T08:44:31;3.35;;;1.80;;
63342;SDS011;49465;57.664;39.686;2023-03-03T08:47:00;2.50;;;1.42;;
63342;SDS011;49465;57.664;39.686;2023-03-03T08:49:32;5.30;;;2.17;;
63342;SDS011;49465;57.664;39.686;2023-03-03T08:51:58;4.25;;;2.78;;
63342;SDS011;49465;57.664;39.686;2023-03-03T08:54:30;3.95;;;2.10;;
63342;SDS011;49465;57.664;39.686;2023-03-03T08:56:56;4.00;;;1.63;;
63342;SDS011;49465;57.664;39.686;2023-03-03T08:59:28;3.83;;;2.10;;
63342;SDS011;49465;57.664;39.686;2023-03-03T09:02:07;5.18;;;2.70;;
63342;SDS011;49465;57.664;39.686;2023-03-03T09:04:38;2.67;;;1.88;;
63342;SDS011;49465;57.664;39.686;2023-03-03T09:07:04;4.32;;;2.10;;
63342;SDS011;49465;57.664;39.686;2023-03-03T09:09:33;4.68;;;2.38;;
63342;SDS011;49465;57.664;39.686;2023-03-03T09:12:21;2.97;;;1.85;;
63342;SDS011;49465;57.664;39.686;2023-03-03T09:14:58;3.25;;;2.00;;
63342;SDS011;49465;57.664;39.686;2023-03-03T09:17:32;3.90;;;2.08;;
63342;SDS011;49465;57.664;39.686;2023-03-03T09:20:15;3.88;;;1.60;;
63342;SDS011;49465;57.664;39.686;2023-03-03T09:22:51;2.42;;;1.30;;
63342;SDS011;49465;57.664;39.686;2023-03-03T09:25:31;2.40;;;1.33;;
63342;SDS011;49465;57.664;39.686;2023-03-03T09:28:04;2.30;;;1.30;;
63342;SDS011;49465;57.664;39.686;2023-03-03T09:31:05;1.98;;;1.27;;
63342;SDS011;49465;57.664;39.686;2023-03-03T09:34:20;2.63;;;1.30;;
63342;SDS011;49465;57.664;39.686;2023-03-03T09:40:00;2.97;;;1.10;;
63342;SDS011;49465;57.664;39.686;2023-03-03T09:43:03;2.30;;;1.10;;
63342;SDS011;49465;57.664;39.686;2023-03-03T09:48:50;2.00;;;0.98;;
63342;SDS011;49465;57.664;39.686;2023-03-03T09:56:38;2.05;;;1.20;;
63342;SDS011;49465;57.664;39.686;2023-03-03T09:59:39;1.50;;;0.93;;
63342;SDS011;49465;57.664;39.686;2023-03-03T10:02:36;2.30;;;1.10;;
63342;SDS011;49465;57.664;39.686;2023-03-03T10:11:17;2.67;;;1.30;;
63342;SDS011;49465;57.664;39.686;2023-03-03T10:25:38;2.17;;;1.13;;
63342;SDS011;49465;57.664;39.686;2023-03-03T10:33:57;2.30;;;1.23;;
63342;SDS011;49465;57.664;39.686;2023-03-03T10:57:03;3.13;;;1.30;;
63342;SDS011;49465;57.664;39.686;2023-03-03T11:08:42;3.72;;;1.38;;
63342;SDS011;49465;57.664;39.686;2023-03-03T11:11:39;3.67;;;1.60;;
63342;SDS011;49465;57.664;39.686;2023-03-03T11:14:26;2.83;;;1.40;;
63342;SDS011;49465;57.664;39.686;2023-03-03T11:22:46;3.35;;;1.50;;
63342;SDS011;49465;57.664;39.686;2023-03-03T11:34:08;3.10;;;1.10;;
63342;SDS011;49465;57.664;39.686;2023-03-03T11:39:16;13.63;;;5.15;;
63342;SDS011;49465;57.664;39.686;2023-03-03T11:47:28;4.03;;;1.95;;
63342;SDS011;49465;57.664;39.686;2023-03-03T11:52:50;3.17;;;1.40;;
63342;SDS011;49465;57.664;39.686;2023-03-03T11:58:04;3.70;;;1.30;;
63342;SDS011;49465;57.664;39.686;2023-03-03T12:03:58;2.70;;;1.23;;
63342;SDS011;49465;57.664;39.686;2023-03-03T12:06:39;7.32;;;3.58;;
63342;SDS011;49465;57.664;39.686;2023-03-03T12:14:58;4.63;;;2.10;;
63342;SDS011;49465;57.664;39.686;2023-03-03T12:20:27;2.47;;;1.13;;
63342;SDS011;49465;57.664;39.686;2023-03-03T12:26:14;1.75;;;1.10;;
63342;SDS011;49465;57.664;39.686;2023-03-03T12:38:03;2.67;;;1.25;;
63342;SDS011;49465;57.664;39.686;2023-03-03T12:41:43;3.05;;;1.15;;
63342;SDS011;49465;57.664;39.686;2023-03-03T12:46:37;2.00;;;1.00;;
63342;SDS011;49465;57.664;39.686;2023-03-03T12:49:11;2.35;;;1.00;;
63342;SDS011;49465;57.664;39.686;2023-03-03T12:54:45;1.80;;;1.00;;
63342;SDS011;49465;57.664;39.686;2023-03-03T13:03:28;6.80;;;3.17;;
63342;SDS011;49465;57.664;39.686;2023-03-03T13:06:24;4.32;;;2.40;;
63342;SDS011;49465;57.664;39.686;2023-03-03T13:12:03;4.55;;;1.63;;
63342;SDS011;49465;57.664;39.686;2023-03-03T13:14:48;3.10;;;1.08;;
63342;SDS011;49465;57.664;39.686;2023-03-03T13:17:26;4.00;;;1.20;;
63342;SDS011;49465;57.664;39.686;2023-03-03T13:20:04;3.75;;;1.25;;
63342;SDS011;49465;57.664;39.686;2023-03-03T13:23:11;3.30;;;1.20;;
63342;SDS011;49465;57.664;39.686;2023-03-03T13:25:58;3.40;;;1.40;;
63342;SDS011;49465;57.664;39.686;2023-03-03T13:28:58;4.75;;;1.42;;
63342;SDS011;49465;57.664;39.686;2023-03-03T13:31:39;3.05;;;1.20;;
63342;SDS011;49465;57.664;39.686;2023-03-03T13:40:18;5.40;;;3.00;;
63342;SDS011;49465;57.664;39.686;2023-03-03T13:56:27;2.50;;;1.30;;
63342;SDS011;49465;57.664;39.686;2023-03-03T14:13:01;3.15;;;1.40;;
63342;SDS011;49465;57.664;39.686;2023-03-03T14:15:50;2.60;;;1.00;;
63342;SDS011;49465;57.664;39.686;2023-03-03T14:21:23;2.97;;;1.20;;
63342;SDS011;49465;57.664;39.686;2023-03-03T14:23:56;3.22;;;1.50;;
63342;SDS011;49465;57.664;39.686;2023-03-03T14:29:40;3.33;;;1.25;;
63342;SDS011;49465;57.664;39.686;2023-03-03T14:32:20;4.18;;;1.10;;
63342;SDS011;49465;57.664;39.686;2023-03-03T14:35:01;3.47;;;1.27;;
63342;SDS011;49465;57.664;39.686;2023-03-03T14:37:45;2.40;;;1.05;;
63342;SDS011;49465;57.664;39.686;2023-03-03T14:40:29;4.00;;;1.10;;
63342;SDS011;49465;57.664;39.686;2023-03-03T14:43:00;3.92;;;1.13;;
63342;SDS011;49465;57.664;39.686;2023-03-03T14:45:43;3.90;;;1.20;;
63342;SDS011;49465;57.664;39.686;2023-03-03T14:48:16;4.15;;;1.50;;
63342;SDS011;49465;57.664;39.686;2023-03-03T14:50:51;3.33;;;1.05;;
63342;SDS011;49465;57.664;39.686;2023-03-03T14:53:45;2.78;;;1.30;;
63342;SDS011;49465;57.664;39.686;2023-03-03T14:56:23;2.65;;;1.40;;
63342;SDS011;49465;57.664;39.686;2023-03-03T14:59:20;2.08;;;1.02;;
63342;SDS011;49465;57.664;39.686;2023-03-03T15:01:59;2.72;;;1.00;;
63342;SDS011;49465;57.664;39.686;2023-03-03T15:04:48;3.35;;;1.20;;
63342;SDS011;49465;57.664;39.686;2023-03-03T15:07:36;4.63;;;1.10;;
63342;SDS011;49465;57.664;39.686;2023-03-03T15:10:07;4.03;;;1.20;;
63342;SDS011;49465;57.664;39.686;2023-03-03T15:12:40;5.28;;;1.60;;
63342;SDS011;49465;57.664;39.686;2023-03-03T15:15:19;4.15;;;1.80;;
63342;SDS011;49465;57.664;39.686;2023-03-03T15:20:42;3.53;;;1.40;;
63342;SDS011;49465;57.664;39.686;2023-03-03T15:23:39;4.75;;;2.00;;
63342;SDS011;49465;57.664;39.686;2023-03-03T15:32:17;5.18;;;2.38;;
63342;SDS011;49465;57.664;39.686;2023-03-03T15:41:10;4.68;;;2.10;;
63342;SDS011;49465;57.664;39.686;2023-03-03T15:44:43;5.25;;;2.45;;
63342;SDS011;49465;57.664;39.686;2023-03-03T15:47:28;7.47;;;3.03;;
63342;SDS011;49465;57.664;39.686;2023-03-03T16:01:27;17.02;;;7.88;;
63342;SDS011;49465;57.664;39.686;2023-03-03T16:04:17;20.75;;;9.35;;
63342;SDS011;49465;57.664;39.686;2023-03-03T16:12:51;13.50;;;5.90;;
63342;SDS011;49465;57.664;39.686;2023-03-03T16:18:36;15.20;;;6.88;;
63342;SDS011;49465;57.664;39.686;2023-03-03T16:21:45;12.70;;;6.88;;
63342;SDS011;49465;57.664;39.686;2023-03-03T16:24:21;12.82;;;6.50;;
63342;SDS011;49465;57.664;39.686;2023-03-03T16:33:17;13.93;;;6.82;;
63342;SDS011;49465;57.664;39.686;2023-03-03T16:36:20;14.07;;;6.30;;
63342;SDS011;49465;57.664;39.686;2023-03-03T16:39:12;11.85;;;4.78;;
63342;SDS011;49465;57.664;39.686;2023-03-03T16:42:01;11.65;;;5.38;;
63342;SDS011;49465;57.664;39.686;2023-03-03T16:50:22;10.32;;;5.10;;
63342;SDS011;49465;57.664;39.686;2023-03-03T16:56:26;9.70;;;4.50;;
63342;SDS011;49465;57.664;39.686;2023-03-03T17:01:46;14.18;;;6.50;;
63342;SDS011;49465;57.664;39.686;2023-03-03T17:07:41;15.93;;;8.52;;
63342;SDS011;49465;57.664;39.686;2023-03-03T17:10:31;14.25;;;7.65;;
63342;SDS011;49465;57.664;39.686;2023-03-03T17:13:16;7.57;;;3.40;;
63342;SDS011;49465;57.664;39.686;2023-03-03T17:22:18;7.10;;;2.20;;
63342;SDS011;49465;57.664;39.686;2023-03-03T17:25:07;6.13;;;2.50;;
63342;SDS011;49465;57.664;39.686;2023-03-03T17:38:44;11.32;;;6.07;;
63342;SDS011;49465;57.664;39.686;2023-03-03T17:44:39;7.93;;;4.50;;
63342;SDS011;49465;57.664;39.686;2023-03-03T17:47:15;8.65;;;4.57;;
63342;SDS011;49465;57.664;39.686;2023-03-03T17:50:10;11.13;;;5.70;;
63342;SDS011;49465;57.664;39.686;2023-03-03T18:07:00;11.80;;;6.50;;
63342;SDS011;49465;57.664;39.686;2023-03-03T18:16:15;45.53;;;35.78;;
63342;SDS011;49465;57.664;39.686;2023-03-03T18:22:17;13.38;;;8.68;;
63342;SDS011;49465;57.664;39.686;2023-03-03T18:24:58;14.07;;;7.97;;
63342;SDS011;49465;57.664;39.686;2023-03-03T18:27:32;12.95;;;8.15;;
63342;SDS011;49465;57.664;39.686;2023-03-03T18:30:23;16.53;;;12.43;;
63342;SDS011;49465;57.664;39.686;2023-03-03T18:33:07;19.60;;;12.43;;
63342;SDS011;49465;57.664;39.686;2023-03-03T18:35:42;33.70;;;25.80;;
63342;SDS011;49465;57.664;39.686;2023-03-03T18:49:05;17.73;;;12.23;;
63342;SDS011;49465;57.664;39.686;2023-03-03T18:56:47;10.43;;;5.50;;
63342;SDS011;49465;57.664;39.686;2023-03-03T19:04:51;12.38;;;5.03;;
63342;SDS011;49465;57.664;39.686;2023-03-03T19:07:26;9.90;;;4.93;;
63342;SDS011;49465;57.664;39.686;2023-03-03T19:13:01;10.57;;;4.63;;
63342;SDS011;49465;57.664;39.686;2023-03-03T19:15:45;12.63;;;4.60;;
63342;SDS011;49465;57.664;39.686;2023-03-03T19:18:19;8.85;;;4.25;;
63342;SDS011;49465;57.664;39.686;2023-03-03T19:20:54;8.90;;;4.45;;
63342;SDS011;49465;57.664;39.686;2023-03-03T19:35:07;8.10;;;3.85;;
63342;SDS011;49465;57.664;39.686;2023-03-03T19:44:03;6.88;;;3.17;;
63342;SDS011;49465;57.664;39.686;2023-03-03T19:46:49;5.72;;;2.97;;
63342;SDS011;49465;57.664;39.686;2023-03-03T20:01:26;10.25;;;5.40;;
63342;SDS011;49465;57.664;39.686;2023-03-03T20:06:51;8.70;;;4.90;;
63342;SDS011;49465;57.664;39.686;2023-03-03T20:17:16;10.00;;;4.90;;
63342;SDS011;49465;57.664;39.686;2023-03-03T20:19:54;10.05;;;5.90;;
63342;SDS011;49465;57.664;39.686;2023-03-03T20:29:02;10.60;;;5.13;;
63342;SDS011;49465;57.664;39.686;2023-03-03T20:43:31;8.95;;;4.80;;
63342;SDS011;49465;57.664;39.686;2023-03-03T20:52:04;8.65;;;4.53;;
63342;SDS011;49465;57.664;39.686;2023-03-03T20:58:03;7.82;;;4.20;;
63342;SDS011;49465;57.664;39.686;2023-03-03T21:06:13;6.30;;;2.78;;
63342;SDS011;49465;57.664;39.686;2023-03-03T21:11:20;5.10;;;2.50;;
63342;SDS011;49465;57.664;39.686;2023-03-03T21:14:15;5.45;;;2.47;;
63342;SDS011;49465;57.664;39.686;2023-03-03T21:16:49;4.15;;;2.42;;
63342;SDS011;49465;57.664;39.686;2023-03-03T21:22:01;3.47;;;1.92;;
63342;SDS011;49465;57.664;39.686;2023-03-03T21:30:13;3.53;;;2.10;;
63342;SDS011;49465;57.664;39.686;2023-03-03T21:32:41;3.72;;;1.63;;
63342;SDS011;49465;57.664;39.686;2023-03-03T21:35:17;5.53;;;1.90;;
63342;SDS011;49465;57.664;39.686;2023-03-03T21:37:56;3.92;;;1.92;;
63342;SDS011;49465;57.664;39.686;2023-03-03T21:40:27;3.92;;;1.70;;
63342;SDS011;49465;57.664;39.686;2023-03-03T21:42:55;4.05;;;1.90;;
63342;SDS011;49465;57.664;39.686;2023-03-03T21:45:23;3.38;;;1.70;;
63342;SDS011;49465;57.664;39.686;2023-03-03T21:47:53;3.08;;;1.85;;
63342;SDS011;49465;57.664;39.686;2023-03-03T21:50:21;2.72;;;1.63;;
63342;SDS011;49465;57.664;39.686;2023-03-03T21:52:55;2.97;;;1.67;;
63342;SDS011;49465;57.664;39.686;2023-03-03T21:55:23;2.63;;;1.42;;
63342;SDS011;49465;57.664;39.686;2023-03-03T21:57:50;2.63;;;1.42;;
63342;SDS011;49465;57.664;39.686;2023-03-03T22:00:19;3.72;;;1.45;;
63342;SDS011;49465;57.664;39.686;2023-03-03T22:02:48;3.15;;;1.60;;
63342;SDS011;49465;57.664;39.686;2023-03-03T22:05:17;1.83;;;1.33;;
63342;SDS011;49465;57.664;39.686;2023-03-03T22:07:47;3.47;;;1.67;;